sensor_id;sensor_type;location;lat;lon;timestamp;pressure;altitude;pressure_sealevel;temperature;humidity
75604;BME280;64187;51.010;13.792;2024-01-15T00:02:27;98415.63;;;2.60;67.57
75604;BME280;64187;51.010;13.792;2024-01-15T00:07:26;98412.13;;;2.71;68.25
75604;BME280;64187;51.010;13.792;2024-01-15T00:12:25;98402.28;;;2.60;68.79
75604;BME280;64187;51.010;13.792;2024-01-15T00:17:24;98403.09;;;2.61;69.84
75604;BME280;64187;51.010;13.792;2024-01-15T00:22:25;98405.81;;;2.49;69.97
75604;BME280;64187;51.010;13.792;2024-01-15T00:27:25;98400.66;;;2.19;70.31
75604;BME280;64187;51.010;13.792;2024-01-15T00:32:24;98397.94;;;2.42;69.82
75604;BME280;64187;51.010;13.792;2024-01-15T00:37:23;98398.03;;;2.47;69.31
75604;BME280;64187;51.010;13.792;2024-01-15T00:42:22;98403.97;;;2.49;69.65
75604;BME280;64187;51.010;13.792;2024-01-15T00:47:21;98407.59;;;2.31;69.65
75604;BME280;64187;51.010;13.792;2024-01-15T00:52:20;98394.78;;;2.45;69.00
75604;BME280;64187;51.010;13.792;2024-01-15T00:57:19;98399.81;;;2.42;69.06
75604;BME280;64187;51.010;13.792;2024-01-15T01:02:18;98391.72;;;2.53;69.05
75604;BME280;64187;51.010;13.792;2024-01-15T01:07:17;98379.91;;;2.09;69.93
75604;BME280;64187;51.010;13.792;2024-01-15T01:12:15;98379.16;;;2.25;69.37
75604;BME280;64187;51.010;13.792;2024-01-15T01:17:15;98370.78;;;2.33;69.22
75604;BME280;64187;51.010;13.792;2024-01-15T01:22:14;98371.94;;;2.37;68.56
75604;BME280;64187;51.010;13.792;2024-01-15T01:27:13;98362.13;;;2.26;69.25
75604;BME280;64187;51.010;13.792;2024-01-15T01:32:11;98355.75;;;2.15;69.18
75604;BME280;64187;51.010;13.792;2024-01-15T01:37:11;98350.59;;;2.37;68.91
75604;BME280;64187;51.010;13.792;2024-01-15T01:42:12;98344.94;;;2.22;68.50
75604;BME280;64187;51.010;13.792;2024-01-15T01:47:12;98322.13;;;2.43;68.23
75604;BME280;64187;51.010;13.792;2024-01-15T01:52:11;98325.84;;;2.42;67.74
75604;BME280;64187;51.010;13.792;2024-01-15T01:57:10;98329.44;;;2.07;68.51
75604;BME280;64187;51.010;13.792;2024-01-15T02:02:11;98341.59;;;2.15;69.18
75604;BME280;64187;51.010;13.792;2024-01-15T02:07:10;98334.44;;;2.04;68.29
75604;BME280;64187;51.010;13.792;2024-01-15T02:12:10;98328.03;;;2.17;67.61
75604;BME280;64187;51.010;13.792;2024-01-15T02:17:09;98322.22;;;2.20;67.55
75604;BME280;64187;51.010;13.792;2024-01-15T02:22:08;98331.03;;;2.20;66.98
75604;BME280;64187;51.010;13.792;2024-01-15T02:27:07;98316.47;;;1.99;67.95
75604;BME280;64187;51.010;13.792;2024-01-15T02:32:06;98290.69;;;2.05;67.25
75604;BME280;64187;51.010;13.792;2024-01-15T02:37:07;98310.09;;;1.88;68.32
75604;BME280;64187;51.010;13.792;2024-01-15T02:42:06;98299.53;;;1.93;68.50
75604;BME280;64187;51.010;13.792;2024-01-15T02:47:05;98295.44;;;1.62;69.21
75604;BME280;64187;51.010;13.792;2024-01-15T02:52:04;98288.41;;;1.97;68.35
75604;BME280;64187;51.010;13.792;2024-01-15T02:57:03;98296.75;;;2.00;67.87
75604;BME280;64187;51.010;13.792;2024-01-15T03:02:02;98290.31;;;1.84;67.94
75604;BME280;64187;51.010;13.792;2024-01-15T03:07:00;98285.09;;;1.78;68.32
75604;BME280;64187;51.010;13.792;2024-01-15T03:11:59;98277.31;;;1.76;68.16
75604;BME280;64187;51.010;13.792;2024-01-15T03:16:58;98281.34;;;1.79;68.35
75604;BME280;64187;51.010;13.792;2024-01-15T03:21:57;98284.28;;;1.77;68.55
75604;BME280;64187;51.010;13.792;2024-01-15T03:26:56;98273.25;;;1.73;68.01
75604;BME280;64187;51.010;13.792;2024-01-15T03:31:55;98277.91;;;1.66;67.41
75604;BME280;64187;51.010;13.792;2024-01-15T03:36:54;98269.56;;;1.63;67.30
75604;BME280;64187;51.010;13.792;2024-01-15T03:41:53;98268.19;;;1.60;67.29
75604;BME280;64187;51.010;13.792;2024-01-15T03:46:52;98290.13;;;1.50;67.83
75604;BME280;64187;51.010;13.792;2024-01-15T03:51:51;98280.84;;;1.41;69.06
75604;BME280;64187;51.010;13.792;2024-01-15T03:56:49;98272.88;;;1.29;68.88
75604;BME280;64187;51.010;13.792;2024-01-15T04:01:49;98290.59;;;1.24;69.46
75604;BME280;64187;51.010;13.792;2024-01-15T04:06:49;98280.28;;;1.16;70.46
75604;BME280;64187;51.010;13.792;2024-01-15T04:11:48;98289.88;;;1.17;70.51
75604;BME280;64187;51.010;13.792;2024-01-15T04:16:47;98282.94;;;1.16;70.33
75604;BME280;64187;51.010;13.792;2024-01-15T04:21:46;98283.06;;;1.21;70.29
75604;BME280;64187;51.010;13.792;2024-01-15T04:26:45;98274.94;;;1.27;69.80
75604;BME280;64187;51.010;13.792;2024-01-15T04:31:44;98252.13;;;1.20;69.90
75604;BME280;64187;51.010;13.792;2024-01-15T04:36:43;98256.78;;;1.24;68.81
75604;BME280;64187;51.010;13.792;2024-01-15T04:41:42;98267.06;;;1.21;68.57
75604;BME280;64187;51.010;13.792;2024-01-15T04:46:41;98255.47;;;1.39;68.48
75604;BME280;64187;51.010;13.792;2024-01-15T04:51:42;98261.03;;;1.14;68.38
75604;BME280;64187;51.010;13.792;2024-01-15T04:56:41;98280.16;;;0.99;68.84
75604;BME280;64187;51.010;13.792;2024-01-15T05:01:40;98276.44;;;0.88;69.19
75604;BME280;64187;51.010;13.792;2024-01-15T05:06:39;98292.97;;;0.78;69.41
75604;BME280;64187;51.010;13.792;2024-01-15T05:11:38;98281.78;;;0.88;68.97
75604;BME280;64187;51.010;13.792;2024-01-15T05:16:44;98289.09;;;1.04;68.46
75604;BME280;64187;51.010;13.792;2024-01-15T05:21:45;98291.38;;;0.89;69.01
75604;BME280;64187;51.010;13.792;2024-01-15T05:26:44;98300.16;;;0.78;69.48
75604;BME280;64187;51.010;13.792;2024-01-15T05:31:42;98308.69;;;3.73;71.20
75604;BME280;64187;51.010;13.792;2024-01-15T05:36:42;98291.28;;;2.35;63.31
75604;BME280;64187;51.010;13.792;2024-01-15T05:41:41;98284.88;;;0.97;67.84
75604;BME280;64187;51.010;13.792;2024-01-15T05:46:39;98292.50;;;0.70;69.65
75604;BME280;64187;51.010;13.792;2024-01-15T05:51:38;98267.84;;;0.74;68.63
75604;BME280;64187;51.010;13.792;2024-01-15T05:56:37;98281.88;;;0.70;68.97
75604;BME280;64187;51.010;13.792;2024-01-15T06:01:36;98289.59;;;0.71;68.51
75604;BME280;64187;51.010;13.792;2024-01-15T06:06:35;98283.13;;;0.79;68.33
75604;BME280;64187;51.010;13.792;2024-01-15T06:11:34;98300.13;;;0.66;68.36
75604;BME280;64187;51.010;13.792;2024-01-15T06:16:33;98288.34;;;0.74;67.64
75604;BME280;64187;51.010;13.792;2024-01-15T06:21:32;98282.81;;;0.99;66.88
75604;BME280;64187;51.010;13.792;2024-01-15T06:26:31;98279.56;;;0.97;66.81
75604;BME280;64187;51.010;13.792;2024-01-15T06:31:30;98271.34;;;0.98;67.02
75604;BME280;64187;51.010;13.792;2024-01-15T06:36:29;98259.66;;;1.11;66.66
75604;BME280;64187;51.010;13.792;2024-01-15T06:41:28;98253.84;;;0.91;66.92
75604;BME280;64187;51.010;13.792;2024-01-15T06:46:27;98273.88;;;0.81;66.37
75604;BME280;64187;51.010;13.792;2024-01-15T06:51:26;98270.75;;;0.84;66.48
75604;BME280;64187;51.010;13.792;2024-01-15T06:56:24;98285.34;;;0.94;65.91
75604;BME280;64187;51.010;13.792;2024-01-15T07:01:23;98271.59;;;1.08;65.35
75604;BME280;64187;51.010;13.792;2024-01-15T07:06:22;98291.38;;;1.01;64.90
75604;BME280;64187;51.010;13.792;2024-01-15T07:11:21;98268.91;;;0.97;65.17
75604;BME280;64187;51.010;13.792;2024-01-15T07:16:20;98263.47;;;0.80;66.45
75604;BME280;64187;51.010;13.792;2024-01-15T07:21:35;98283.63;;;0.88;65.28
75604;BME280;64187;51.010;13.792;2024-01-15T07:26:34;98291.38;;;1.01;65.13
75604;BME280;64187;51.010;13.792;2024-01-15T07:31:32;98313.06;;;1.04;64.98
75604;BME280;64187;51.010;13.792;2024-01-15T07:36:31;98310.25;;;0.99;65.19
75604;BME280;64187;51.010;13.792;2024-01-15T07:41:30;98334.94;;;1.06;65.35
75604;BME280;64187;51.010;13.792;2024-01-15T07:46:29;98333.66;;;0.97;65.89
75604;BME280;64187;51.010;13.792;2024-01-15T07:51:28;98320.34;;;1.09;64.90
75604;BME280;64187;51.010;13.792;2024-01-15T07:56:28;98306.34;;;1.14;65.11
75604;BME280;64187;51.010;13.792;2024-01-15T08:01:27;98303.91;;;1.24;64.71
75604;BME280;64187;51.010;13.792;2024-01-15T08:06:26;98296.84;;;1.41;64.67
75604;BME280;64187;51.010;13.792;2024-01-15T08:11:25;98307.28;;;1.55;63.88
75604;BME280;64187;51.010;13.792;2024-01-15T08:16:24;98303.91;;;1.59;63.32
75604;BME280;64187;51.010;13.792;2024-01-15T08:21:23;98305.88;;;1.17;63.99
75604;BME280;64187;51.010;13.792;2024-01-15T08:26:22;98297.63;;;1.06;64.37
75604;BME280;64187;51.010;13.792;2024-01-15T08:31:21;98306.22;;;1.20;63.97
75604;BME280;64187;51.010;13.792;2024-01-15T08:36:21;98310.75;;;1.43;63.84
75604;BME280;64187;51.010;13.792;2024-01-15T08:41:20;98301.72;;;1.21;64.53
75604;BME280;64187;51.010;13.792;2024-01-15T08:46:19;98304.63;;;1.19;63.98
75604;BME280;64187;51.010;13.792;2024-01-15T08:51:18;98316.75;;;1.03;64.17
75604;BME280;64187;51.010;13.792;2024-01-15T08:56:19;98317.00;;;1.14;64.38
75604;BME280;64187;51.010;13.792;2024-01-15T09:01:19;98319.22;;;1.28;63.85
75604;BME280;64187;51.010;13.792;2024-01-15T09:06:18;98314.00;;;1.45;63.53
75604;BME280;64187;51.010;13.792;2024-01-15T09:11:18;98325.13;;;1.42;62.85
75604;BME280;64187;51.010;13.792;2024-01-15T09:16:17;98342.03;;;1.48;63.22
75604;BME280;64187;51.010;13.792;2024-01-15T09:21:16;98327.97;;;1.76;62.41
75604;BME280;64187;51.010;13.792;2024-01-15T09:26:15;98314.09;;;2.14;60.93
75604;BME280;64187;51.010;13.792;2024-01-15T09:31:14;98343.97;;;2.00;61.22
75604;BME280;64187;51.010;13.792;2024-01-15T09:36:13;98348.31;;;2.18;60.35
75604;BME280;64187;51.010;13.792;2024-01-15T09:41:12;98338.06;;;1.86;60.72
75604;BME280;64187;51.010;13.792;2024-01-15T09:46:11;98335.38;;;1.98;60.92
75604;BME280;64187;51.010;13.792;2024-01-15T09:51:10;98344.34;;;2.32;60.16
75604;BME280;64187;51.010;13.792;2024-01-15T09:56:10;98337.56;;;2.70;58.63
75604;BME280;64187;51.010;13.792;2024-01-15T10:01:09;98331.91;;;2.37;60.01
75604;BME280;64187;51.010;13.792;2024-01-15T10:06:11;98344.84;;;2.46;58.53
75604;BME280;64187;51.010;13.792;2024-01-15T10:11:16;98331.63;;;2.10;59.79
75604;BME280;64187;51.010;13.792;2024-01-15T10:16:15;98338.34;;;2.13;59.59
75604;BME280;64187;51.010;13.792;2024-01-15T10:21:14;98326.06;;;2.12;59.61
75604;BME280;64187;51.010;13.792;2024-01-15T10:26:14;98305.59;;;2.29;59.34
75604;BME280;64187;51.010;13.792;2024-01-15T10:31:17;98309.44;;;2.50;59.00
75604;BME280;64187;51.010;13.792;2024-01-15T10:36:18;98296.28;;;2.77;58.48
75604;BME280;64187;51.010;13.792;2024-01-15T10:41:17;98306.22;;;2.65;57.97
75604;BME280;64187;51.010;13.792;2024-01-15T10:46:16;98313.19;;;2.66;57.91
75604;BME280;64187;51.010;13.792;2024-01-15T10:51:15;98299.59;;;2.68;58.01
75604;BME280;64187;51.010;13.792;2024-01-15T10:56:15;98313.47;;;2.82;57.49
75604;BME280;64187;51.010;13.792;2024-01-15T11:01:14;98311.28;;;2.78;57.18
75604;BME280;64187;51.010;13.792;2024-01-15T11:06:18;98307.47;;;2.74;57.63
75604;BME280;64187;51.010;13.792;2024-01-15T11:11:21;98296.28;;;3.28;56.07
75604;BME280;64187;51.010;13.792;2024-01-15T11:16:20;98312.91;;;3.13;56.03
75604;BME280;64187;51.010;13.792;2024-01-15T11:21:20;98296.44;;;2.88;57.05
75604;BME280;64187;51.010;13.792;2024-01-15T11:41:49;98271.94;;;2.91;57.13
75604;BME280;64187;51.010;13.792;2024-01-15T11:47:09;98273.97;;;2.38;58.35
75604;BME280;64187;51.010;13.792;2024-01-15T11:52:18;98268.19;;;2.92;57.33
75604;BME280;64187;51.010;13.792;2024-01-15T11:57:24;98263.31;;;3.22;56.41
75604;BME280;64187;51.010;13.792;2024-01-15T12:02:24;98268.19;;;2.92;57.05
75604;BME280;64187;51.010;13.792;2024-01-15T12:07:23;98260.97;;;2.75;57.51
75604;BME280;64187;51.010;13.792;2024-01-15T12:12:39;98290.09;;;2.60;57.57
75604;BME280;64187;51.010;13.792;2024-01-15T12:17:43;98274.16;;;2.65;58.20
75604;BME280;64187;51.010;13.792;2024-01-15T12:22:42;98289.53;;;2.41;59.65
75604;BME280;64187;51.010;13.792;2024-01-15T12:27:59;98266.06;;;2.60;59.35
75604;BME280;64187;51.010;13.792;2024-01-15T12:33:01;98260.38;;;2.40;60.78
75604;BME280;64187;51.010;13.792;2024-01-15T12:38:02;98267.03;;;2.54;60.94
75604;BME280;64187;51.010;13.792;2024-01-15T12:43:02;98262.69;;;2.65;61.37
75604;BME280;64187;51.010;13.792;2024-01-15T12:48:01;98271.16;;;2.45;61.90
75604;BME280;64187;51.010;13.792;2024-01-15T12:53:02;98261.06;;;2.18;63.24
75604;BME280;64187;51.010;13.792;2024-01-15T12:58:01;98264.78;;;2.17;64.51
75604;BME280;64187;51.010;13.792;2024-01-15T13:03:02;98267.94;;;2.14;65.68
75604;BME280;64187;51.010;13.792;2024-01-15T13:08:02;98267.41;;;2.29;66.13
75604;BME280;64187;51.010;13.792;2024-01-15T13:13:02;98275.00;;;2.08;67.82
75604;BME280;64187;51.010;13.792;2024-01-15T13:18:01;98279.03;;;1.82;68.88
75604;BME280;64187;51.010;13.792;2024-01-15T13:23:00;98265.41;;;1.67;69.44
75604;BME280;64187;51.010;13.792;2024-01-15T13:28:02;98267.59;;;1.70;70.53
75604;BME280;64187;51.010;13.792;2024-01-15T13:33:04;98292.47;;;1.99;69.43
75604;BME280;64187;51.010;13.792;2024-01-15T13:38:03;98270.59;;;1.73;71.15
75604;BME280;64187;51.010;13.792;2024-01-15T13:43:02;98273.94;;;1.81;71.51
75604;BME280;64187;51.010;13.792;2024-01-15T13:48:05;98300.13;;;1.96;70.68
75604;BME280;64187;51.010;13.792;2024-01-15T13:53:04;98299.69;;;1.75;72.41
75604;BME280;64187;51.010;13.792;2024-01-15T13:58:03;98313.84;;;1.76;73.02
75604;BME280;64187;51.010;13.792;2024-01-15T14:03:04;98318.53;;;1.57;74.40
75604;BME280;64187;51.010;13.792;2024-01-15T14:08:04;98334.50;;;1.33;75.75
75604;BME280;64187;51.010;13.792;2024-01-15T14:13:03;98324.06;;;1.32;76.21
75604;BME280;64187;51.010;13.792;2024-01-15T14:18:02;98315.38;;;1.36;75.05
75604;BME280;64187;51.010;13.792;2024-01-15T14:23:01;98327.44;;;1.50;74.98
75604;BME280;64187;51.010;13.792;2024-01-15T14:28:00;98322.31;;;0.90;77.21
75604;BME280;64187;51.010;13.792;2024-01-15T14:32:59;98330.88;;;1.04;77.79
75604;BME280;64187;51.010;13.792;2024-01-15T14:37:59;98335.44;;;1.15;77.64
75604;BME280;64187;51.010;13.792;2024-01-15T14:42:58;98345.81;;;0.93;79.31
75604;BME280;64187;51.010;13.792;2024-01-15T14:47:57;98366.22;;;1.11;81.26
75604;BME280;64187;51.010;13.792;2024-01-15T14:52:57;98366.97;;;1.30;80.46
75604;BME280;64187;51.010;13.792;2024-01-15T14:57:56;98362.69;;;1.53;80.24
75604;BME280;64187;51.010;13.792;2024-01-15T15:02:55;98354.84;;;1.04;81.41
75604;BME280;64187;51.010;13.792;2024-01-15T15:07:54;98355.22;;;1.07;83.18
75604;BME280;64187;51.010;13.792;2024-01-15T15:12:53;98360.47;;;1.38;82.52
75604;BME280;64187;51.010;13.792;2024-01-15T15:17:52;98351.16;;;1.05;83.79
75604;BME280;64187;51.010;13.792;2024-01-15T15:22:51;98357.66;;;1.21;82.10
75604;BME280;64187;51.010;13.792;2024-01-15T15:27:53;98361.53;;;1.37;79.72
75604;BME280;64187;51.010;13.792;2024-01-15T15:32:53;98362.91;;;1.27;80.27
75604;BME280;64187;51.010;13.792;2024-01-15T15:37:55;98375.31;;;1.57;76.53
75604;BME280;64187;51.010;13.792;2024-01-15T15:42:54;98379.25;;;1.19;77.06
75604;BME280;64187;51.010;13.792;2024-01-15T15:47:53;98376.47;;;1.38;75.88
75604;BME280;64187;51.010;13.792;2024-01-15T15:52:52;98377.97;;;1.22;78.39
75604;BME280;64187;51.010;13.792;2024-01-15T15:57:51;98384.22;;;1.27;77.84
75604;BME280;64187;51.010;13.792;2024-01-15T16:02:50;98388.84;;;1.44;76.85
75604;BME280;64187;51.010;13.792;2024-01-15T16:07:49;98390.50;;;1.68;75.66
75604;BME280;64187;51.010;13.792;2024-01-15T16:12:48;98397.47;;;1.69;73.73
75604;BME280;64187;51.010;13.792;2024-01-15T16:17:51;98405.00;;;1.61;74.36
75604;BME280;64187;51.010;13.792;2024-01-15T16:23:10;98405.66;;;1.33;77.17
75604;BME280;64187;51.010;13.792;2024-01-15T16:28:35;98421.91;;;1.66;76.12
75604;BME280;64187;51.010;13.792;2024-01-15T16:33:41;98427.84;;;1.57;75.39
75604;BME280;64187;51.010;13.792;2024-01-15T16:38:45;98429.31;;;1.41;75.78
75604;BME280;64187;51.010;13.792;2024-01-15T16:43:44;98431.75;;;1.42;76.79
75604;BME280;64187;51.010;13.792;2024-01-15T16:48:42;98450.19;;;1.32;75.37
75604;BME280;64187;51.010;13.792;2024-01-15T16:53:42;98449.22;;;1.26;79.81
75604;BME280;64187;51.010;13.792;2024-01-15T16:58:40;98455.63;;;1.37;78.40
75604;BME280;64187;51.010;13.792;2024-01-15T17:03:39;98462.88;;;0.88;81.55
75604;BME280;64187;51.010;13.792;2024-01-15T17:08:38;98454.19;;;1.23;84.02
75604;BME280;64187;51.010;13.792;2024-01-15T17:13:37;98453.16;;;1.24;82.38
75604;BME280;64187;51.010;13.792;2024-01-15T17:18:36;98450.16;;;0.90;82.24
75604;BME280;64187;51.010;13.792;2024-01-15T17:23:35;98455.84;;;1.36;79.79
75604;BME280;64187;51.010;13.792;2024-01-15T17:28:34;98456.81;;;1.11;78.28
75604;BME280;64187;51.010;13.792;2024-01-15T17:33:33;98454.09;;;1.29;76.25
75604;BME280;64187;51.010;13.792;2024-01-15T17:38:32;98454.66;;;1.32;75.08
75604;BME280;64187;51.010;13.792;2024-01-15T17:43:34;98459.31;;;1.36;73.89
75604;BME280;64187;51.010;13.792;2024-01-15T17:48:35;98460.00;;;1.20;74.41
75604;BME280;64187;51.010;13.792;2024-01-15T17:53:34;98468.19;;;1.60;73.88
75604;BME280;64187;51.010;13.792;2024-01-15T17:58:33;98473.75;;;1.47;74.42
75604;BME280;64187;51.010;13.792;2024-01-15T18:03:32;98478.41;;;1.21;77.58
75604;BME280;64187;51.010;13.792;2024-01-15T18:08:32;98494.03;;;1.60;77.37
75604;BME280;64187;51.010;13.792;2024-01-15T18:13:31;98488.63;;;1.36;76.73
75604;BME280;64187;51.010;13.792;2024-01-15T18:18:30;98494.34;;;1.40;76.78
75604;BME280;64187;51.010;13.792;2024-01-15T18:23:30;98496.28;;;1.33;77.13
75604;BME280;64187;51.010;13.792;2024-01-15T18:28:29;98504.75;;;1.29;77.76
75604;BME280;64187;51.010;13.792;2024-01-15T18:33:28;98499.50;;;1.65;76.62
75604;BME280;64187;51.010;13.792;2024-01-15T18:38:27;98502.34;;;1.40;77.71
75604;BME280;64187;51.010;13.792;2024-01-15T18:43:27;98515.97;;;1.73;75.74
75604;BME280;64187;51.010;13.792;2024-01-15T18:48:26;98519.63;;;1.49;77.64
75604;BME280;64187;51.010;13.792;2024-01-15T18:53:26;98527.63;;;1.49;78.27
75604;BME280;64187;51.010;13.792;2024-01-15T18:58:25;98522.91;;;1.21;81.03
75604;BME280;64187;51.010;13.792;2024-01-15T19:03:25;98517.53;;;1.39;82.22
75604;BME280;64187;51.010;13.792;2024-01-15T19:08:24;98519.94;;;1.41;82.36
75604;BME280;64187;51.010;13.792;2024-01-15T19:13:23;98524.25;;;1.12;83.67
75604;BME280;64187;51.010;13.792;2024-01-15T19:18:22;98523.16;;;1.31;82.96
75604;BME280;64187;51.010;13.792;2024-01-15T19:23:21;98543.59;;;1.37;81.26
75604;BME280;64187;51.010;13.792;2024-01-15T19:28:20;98542.41;;;1.03;82.61
75604;BME280;64187;51.010;13.792;2024-01-15T19:33:19;98548.47;;;1.10;83.85
75604;BME280;64187;51.010;13.792;2024-01-15T19:38:18;98547.81;;;0.96;85.50
75604;BME280;64187;51.010;13.792;2024-01-15T19:43:17;98536.06;;;0.85;88.32
75604;BME280;64187;51.010;13.792;2024-01-15T19:48:16;98538.34;;;1.00;87.57
75604;BME280;64187;51.010;13.792;2024-01-15T19:53:16;98544.78;;;0.93;87.36
75604;BME280;64187;51.010;13.792;2024-01-15T19:58:15;98547.28;;;1.36;85.60
75604;BME280;64187;51.010;13.792;2024-01-15T20:03:14;98550.69;;;1.13;82.52
75604;BME280;64187;51.010;13.792;2024-01-15T20:08:13;98557.09;;;1.24;81.16
75604;BME280;64187;51.010;13.792;2024-01-15T20:13:12;98545.94;;;4.74;92.96
75604;BME280;64187;51.010;13.792;2024-01-15T20:18:11;98550.13;;;4.87;70.57
75604;BME280;64187;51.010;13.792;2024-01-15T20:23:10;98558.63;;;4.40;66.71
75604;BME280;64187;51.010;13.792;2024-01-15T20:28:09;98568.94;;;2.47;71.85
75604;BME280;64187;51.010;13.792;2024-01-15T20:33:09;98590.34;;;1.82;75.30
75604;BME280;64187;51.010;13.792;2024-01-15T20:38:08;98603.66;;;1.40;78.55
75604;BME280;64187;51.010;13.792;2024-01-15T20:43:07;98606.91;;;1.23;81.00
75604;BME280;64187;51.010;13.792;2024-01-15T20:48:06;98605.59;;;0.96;82.91
75604;BME280;64187;51.010;13.792;2024-01-15T20:53:05;98608.06;;;0.97;82.64
75604;BME280;64187;51.010;13.792;2024-01-15T20:58:07;98613.50;;;1.39;80.37
75604;BME280;64187;51.010;13.792;2024-01-15T21:03:06;98617.19;;;1.38;81.00
75604;BME280;64187;51.010;13.792;2024-01-15T21:08:05;98623.75;;;0.87;87.62
75604;BME280;64187;51.010;13.792;2024-01-15T21:13:04;98634.00;;;0.83;91.34
75604;BME280;64187;51.010;13.792;2024-01-15T21:18:05;98646.13;;;0.79;92.26
75604;BME280;64187;51.010;13.792;2024-01-15T21:23:04;98656.31;;;0.64;93.29
75604;BME280;64187;51.010;13.792;2024-01-15T21:28:03;98662.16;;;0.98;89.42
75604;BME280;64187;51.010;13.792;2024-01-15T21:33:02;98650.69;;;1.16;85.24
75604;BME280;64187;51.010;13.792;2024-01-15T21:38:06;98655.84;;;1.29;83.67
75604;BME280;64187;51.010;13.792;2024-01-15T21:43:05;98675.41;;;1.23;83.30
75604;BME280;64187;51.010;13.792;2024-01-15T21:48:04;98683.41;;;1.23;83.07
75604;BME280;64187;51.010;13.792;2024-01-15T21:53:03;98690.19;;;1.00;87.16
75604;BME280;64187;51.010;13.792;2024-01-15T21:58:03;98698.34;;;1.05;86.85
75604;BME280;64187;51.010;13.792;2024-01-15T22:03:02;98703.81;;;0.92;85.70
75604;BME280;64187;51.010;13.792;2024-01-15T22:08:01;98706.47;;;0.92;85.12
75604;BME280;64187;51.010;13.792;2024-01-15T22:13:00;98715.19;;;0.99;84.39
75604;BME280;64187;51.010;13.792;2024-01-15T22:17:58;98726.84;;;1.05;83.90
75604;BME280;64187;51.010;13.792;2024-01-15T22:22:58;98752.56;;;0.93;86.24
75604;BME280;64187;51.010;13.792;2024-01-15T22:27:57;98768.47;;;0.74;92.87
75604;BME280;64187;51.010;13.792;2024-01-15T22:32:56;98769.94;;;0.45;97.28
75604;BME280;64187;51.010;13.792;2024-01-15T22:37:55;98766.06;;;0.41;99.57
75604;BME280;64187;51.010;13.792;2024-01-15T22:42:54;98771.44;;;0.59;100.00
75604;BME280;64187;51.010;13.792;2024-01-15T22:47:53;98783.59;;;0.80;97.88
75604;BME280;64187;51.010;13.792;2024-01-15T22:52:52;98779.25;;;0.86;96.64
75604;BME280;64187;51.010;13.792;2024-01-15T22:57:51;98775.66;;;0.74;93.77
75604;BME280;64187;51.010;13.792;2024-01-15T23:02:50;98782.56;;;0.81;93.28
75604;BME280;64187;51.010;13.792;2024-01-15T23:07:52;98781.75;;;0.81;89.25
75604;BME280;64187;51.010;13.792;2024-01-15T23:12:58;98786.34;;;0.67;87.00
75604;BME280;64187;51.010;13.792;2024-01-15T23:17:57;98792.41;;;0.81;81.44
75604;BME280;64187;51.010;13.792;2024-01-15T23:22:57;98789.47;;;0.89;80.20
75604;BME280;64187;51.010;13.792;2024-01-15T23:27:56;98792.78;;;0.84;77.87
75604;BME280;64187;51.010;13.792;2024-01-15T23:32:55;98812.75;;;1.00;75.46
75604;BME280;64187;51.010;13.792;2024-01-15T23:37:54;98818.69;;;1.02;74.24
75604;BME280;64187;51.010;13.792;2024-01-15T23:42:53;98815.22;;;1.02;74.17
75604;BME280;64187;51.010;13.792;2024-01-15T23:47:52;98832.59;;;1.04;72.76
75604;BME280;64187;51.010;13.792;2024-01-15T23:52:51;98834.88;;;1.01;73.42
75604;BME280;64187;51.010;13.792;2024-01-15T23:57:50;98859.94;;;0.93;75.56
